RYR6499 GMMX-LBSF
Flight info
| Callsign | RYR6499 |
|---|---|
| Flight time | N/A |
| Altitude | 37000 |
| Route | OBOGA UG850 FES G850 BOKPA UG850 ALM G850 BERUM N860 GONZA T100 SOTAX DCT INPEK DCT ODAKA DCT ELSAG M603 ALG L5 OST DCT MOPUV DCT EKMIL DCT ERPOG DCT KATTI DCT RILIM DCT INTIT DCT BUNEX DCT BAJUN DCT AZBUX L614 NISVA |
| Aircraft | B738/M-SDE2E3FGHIRWXY/LB1 |
Departure
| Time | 2026-04-30 20:58 |
|---|---|
| Airport | Marrakesh Menara Airport (GMMX) |
Arrival
| Time | N/A |
|---|---|
| Airport | Sofia Airport (LBSF) |
| Time | Latitude | Longitude | Altitude | Speed | Heading |
|---|---|---|---|---|---|
| 2026-04-30 20:37 | 31.60308 | -8.02546 | 1548 ft | 0 kts | 186° |
| 2026-04-30 20:49 | 31.60310 | -8.02546 | 1548 ft | 2 kts | 186° |
| 2026-04-30 20:49 | 31.60327 | -8.02543 | 1547 ft | 3 kts | 186° |
| 2026-04-30 20:50 | 31.60368 | -8.02538 | 1540 ft | 3 kts | 187° |
| 2026-04-30 20:50 | 31.60388 | -8.02536 | 1545 ft | 3 kts | 187° |
| 2026-04-30 20:50 | 31.60408 | -8.02533 | 1545 ft | 3 kts | 187° |
| 2026-04-30 20:50 | 31.60426 | -8.02530 | 1543 ft | 2 kts | 187° |
| 2026-04-30 20:51 | 31.60429 | -8.02530 | 1541 ft | 1 kts | 187° |
| 2026-04-30 20:53 | 31.60421 | -8.02533 | 1548 ft | 2 kts | 201° |
| 2026-04-30 20:53 | 31.60421 | -8.02554 | 1541 ft | 4 kts | 279° |
| 2026-04-30 20:53 | 31.60426 | -8.02601 | 1548 ft | 8 kts | 276° |
| 2026-04-30 20:54 | 31.60442 | -8.02811 | 1539 ft | 18 kts | 275° |
| 2026-04-30 20:54 | 31.60459 | -8.02976 | 1548 ft | 23 kts | 276° |
| 2026-04-30 20:54 | 31.60476 | -8.03171 | 1548 ft | 25 kts | 276° |
| 2026-04-30 20:55 | 31.60512 | -8.03593 | 1547 ft | 27 kts | 276° |
| 2026-04-30 20:55 | 31.60532 | -8.03815 | 1547 ft | 28 kts | 276° |
| 2026-04-30 20:55 | 31.60552 | -8.04043 | 1547 ft | 28 kts | 276° |
| 2026-04-30 20:56 | 31.60592 | -8.04499 | 1545 ft | 27 kts | 276° |
| 2026-04-30 20:56 | 31.60610 | -8.04710 | 1547 ft | 26 kts | 276° |
| 2026-04-30 20:56 | 31.60648 | -8.05122 | 1546 ft | 24 kts | 276° |
| 2026-04-30 20:57 | 31.60678 | -8.05246 | 1541 ft | 14 kts | 329° |
| 2026-04-30 20:57 | 31.60789 | -8.05240 | 1524 ft | 19 kts | 17° |
| 2026-04-30 20:57 | 31.60819 | -8.05111 | 1531 ft | 19 kts | 97° |
| 2026-04-30 20:58 | 31.60732 | -8.04104 | 1536 ft | 125 kts | 96° |
| 2026-04-30 20:58 | 31.60621 | -8.02862 | 1565 ft | 178 kts | 93° |
| 2026-04-30 20:58 | 31.60484 | -8.01420 | 2343 ft | 173 kts | 98° |
| 2026-04-30 20:58 | 31.60046 | -8.00063 | 3071 ft | 184 kts | 114° |
| 2026-04-30 20:59 | 31.58971 | -7.97314 | 4452 ft | 190 kts | 112° |
| 2026-04-30 20:59 | 31.58447 | -7.95866 | 4984 ft | 202 kts | 112° |
| 2026-04-30 21:00 | 31.57244 | -7.92505 | 5336 ft | 245 kts | 113° |
| 2026-04-30 21:00 | 31.56742 | -7.88357 | 6007 ft | 277 kts | 71° |
| 2026-04-30 21:01 | 31.59081 | -7.84771 | 7483 ft | 284 kts | 43° |
| 2026-04-30 21:01 | 31.60556 | -7.83208 | 8178 ft | 288 kts | 42° |
| 2026-04-30 21:01 | 31.63597 | -7.80047 | 9652 ft | 295 kts | 41° |
| 2026-04-30 21:02 | 31.65135 | -7.78433 | 10322 ft | 299 kts | 41° |
| 2026-04-30 21:02 | 31.66725 | -7.76752 | 10601 ft | 319 kts | 41° |
| 2026-04-30 21:02 | 31.68422 | -7.74947 | 10772 ft | 340 kts | 41° |
| 2026-04-30 21:02 | 31.70194 | -7.73051 | 11062 ft | 355 kts | 41° |
| 2026-04-30 21:03 | 31.72031 | -7.71076 | 11646 ft | 360 kts | 41° |
| 2026-04-30 21:03 | 31.73881 | -7.69082 | 12335 ft | 362 kts | 41° |
| 2026-04-30 21:03 | 31.75744 | -7.67069 | 12985 ft | 365 kts | 41° |
| 2026-04-30 21:03 | 31.77623 | -7.65036 | 13627 ft | 369 kts | 41° |
| 2026-04-30 21:04 | 31.79525 | -7.62977 | 14214 ft | 373 kts | 41° |
| 2026-04-30 21:04 | 31.81438 | -7.60903 | 14781 ft | 376 kts | 40° |
| 2026-04-30 21:04 | 31.85320 | -7.56692 | 15929 ft | 383 kts | 40° |
| 2026-04-30 21:05 | 31.87285 | -7.54558 | 16484 ft | 386 kts | 40° |
| 2026-04-30 21:05 | 31.89268 | -7.52403 | 17035 ft | 390 kts | 40° |
| 2026-04-30 21:05 | 31.91269 | -7.50228 | 17580 ft | 393 kts | 40° |
| 2026-04-30 21:05 | 31.93288 | -7.48031 | 18110 ft | 397 kts | 40° |
| 2026-04-30 21:06 | 31.95325 | -7.45813 | 18605 ft | 400 kts | 40° |
| 2026-04-30 21:06 | 31.97377 | -7.43577 | 19065 ft | 404 kts | 40° |
| 2026-04-30 21:06 | 31.99442 | -7.41326 | 19551 ft | 406 kts | 39° |
| 2026-04-30 21:06 | 32.01519 | -7.39061 | 20035 ft | 408 kts | 39° |
| 2026-04-30 21:07 | 32.03610 | -7.36778 | 20513 ft | 411 kts | 39° |
| 2026-04-30 21:07 | 32.05717 | -7.34476 | 20980 ft | 414 kts | 39° |
| 2026-04-30 21:07 | 32.07834 | -7.32163 | 21429 ft | 417 kts | 39° |
| 2026-04-30 21:07 | 32.09966 | -7.29832 | 21875 ft | 419 kts | 39° |
| 2026-04-30 21:08 | 32.12106 | -7.27489 | 22325 ft | 422 kts | 39° |
| 2026-04-30 21:08 | 32.14268 | -7.25122 | 22770 ft | 424 kts | 39° |
| 2026-04-30 21:08 | 32.16434 | -7.22748 | 23199 ft | 427 kts | 39° |
| 2026-04-30 21:08 | 32.18615 | -7.20356 | 23631 ft | 429 kts | 38° |
| 2026-04-30 21:09 | 32.20809 | -7.17948 | 23990 ft | 431 kts | 38° |
| 2026-04-30 21:09 | 32.23011 | -7.15530 | 24333 ft | 434 kts | 38° |
| 2026-04-30 21:09 | 32.25223 | -7.13099 | 24665 ft | 436 kts | 38° |
| 2026-04-30 21:09 | 32.27451 | -7.10649 | 24987 ft | 439 kts | 38° |
| 2026-04-30 21:10 | 32.29691 | -7.08184 | 25321 ft | 441 kts | 38° |
| 2026-04-30 21:10 | 32.31946 | -7.05701 | 25653 ft | 443 kts | 38° |
| 2026-04-30 21:10 | 32.34206 | -7.03210 | 25980 ft | 446 kts | 38° |
| 2026-04-30 21:10 | 32.36477 | -7.00705 | 26286 ft | 448 kts | 38° |
| 2026-04-30 21:11 | 32.38761 | -6.98184 | 26591 ft | 450 kts | 38° |
| 2026-04-30 21:11 | 32.41059 | -6.95646 | 26906 ft | 452 kts | 38° |
| 2026-04-30 21:11 | 32.43360 | -6.93103 | 27209 ft | 454 kts | 38° |
| 2026-04-30 21:11 | 32.45674 | -6.90543 | 27503 ft | 456 kts | 38° |
| 2026-04-30 21:12 | 32.47994 | -6.87975 | 27799 ft | 458 kts | 38° |
| 2026-04-30 21:12 | 32.50299 | -6.85421 | 28096 ft | 460 kts | 38° |
| 2026-04-30 21:12 | 32.52672 | -6.82790 | 28388 ft | 462 kts | 38° |
| 2026-04-30 21:12 | 32.55020 | -6.80185 | 28668 ft | 464 kts | 37° |
| 2026-04-30 21:13 | 32.57349 | -6.77600 | 28946 ft | 466 kts | 37° |
| 2026-04-30 21:13 | 32.59714 | -6.74972 | 29256 ft | 466 kts | 37° |
| 2026-04-30 21:13 | 32.62076 | -6.72343 | 29680 ft | 464 kts | 37° |
| 2026-04-30 21:13 | 32.64425 | -6.69727 | 30148 ft | 462 kts | 37° |
| 2026-04-30 21:14 | 32.66761 | -6.67122 | 30527 ft | 459 kts | 37° |
| 2026-04-30 21:14 | 32.68331 | -6.65372 | 30742 ft | 459 kts | 37° |
| 2026-04-30 21:14 | 32.70661 | -6.62775 | 31027 ft | 459 kts | 37° |
| 2026-04-30 21:14 | 32.72984 | -6.60184 | 31324 ft | 458 kts | 37° |
| 2026-04-30 21:15 | 32.75306 | -6.57590 | 31640 ft | 457 kts | 37° |
| 2026-04-30 21:15 | 32.77617 | -6.55008 | 31954 ft | 456 kts | 37° |
| 2026-04-30 21:15 | 32.79929 | -6.52422 | 32277 ft | 455 kts | 37° |
| 2026-04-30 21:15 | 32.82231 | -6.49846 | 32554 ft | 454 kts | 37° |
| 2026-04-30 21:16 | 32.84529 | -6.47271 | 32813 ft | 454 kts | 37° |
| 2026-04-30 21:16 | 32.86830 | -6.44692 | 33102 ft | 453 kts | 37° |
| 2026-04-30 21:16 | 32.89119 | -6.42125 | 33407 ft | 452 kts | 37° |
| 2026-04-30 21:16 | 32.91407 | -6.39555 | 33683 ft | 452 kts | 37° |
| 2026-04-30 21:17 | 32.93611 | -6.36877 | 33931 ft | 455 kts | 40° |
| 2026-04-30 21:17 | 32.95733 | -6.34083 | 34120 ft | 456 kts | 42° |
| 2026-04-30 21:17 | 32.99927 | -6.28370 | 34121 ft | 457 kts | 42° |
| 2026-04-30 21:18 | 33.04100 | -6.22691 | 34119 ft | 454 kts | 42° |
| 2026-04-30 21:18 | 33.08267 | -6.17076 | 34124 ft | 451 kts | 41° |
| 2026-04-30 21:19 | 33.12451 | -6.11458 | 34139 ft | 455 kts | 42° |
| 2026-04-30 21:19 | 33.16654 | -6.05802 | 34134 ft | 454 kts | 41° |
| 2026-04-30 21:20 | 33.20793 | -6.00215 | 34118 ft | 450 kts | 41° |
| 2026-04-30 21:20 | 33.24921 | -5.94639 | 34133 ft | 447 kts | 41° |
| 2026-04-30 21:21 | 33.29026 | -5.89087 | 34137 ft | 445 kts | 41° |
| 2026-04-30 21:22 | 33.35177 | -5.80748 | 34147 ft | 450 kts | 42° |
| 2026-04-30 21:23 | 33.43490 | -5.69390 | 34137 ft | 454 kts | 42° |
| 2026-04-30 21:23 | 33.49704 | -5.60868 | 34153 ft | 452 kts | 42° |
| 2026-04-30 21:24 | 33.53837 | -5.55195 | 34160 ft | 452 kts | 42° |
| 2026-04-30 21:24 | 33.57971 | -5.49513 | 34159 ft | 452 kts | 43° |
| 2026-04-30 21:25 | 33.64168 | -5.40976 | 34159 ft | 452 kts | 43° |
| 2026-04-30 21:26 | 33.70366 | -5.32419 | 34164 ft | 453 kts | 43° |
| 2026-04-30 21:27 | 33.76544 | -5.23866 | 34166 ft | 454 kts | 44° |
| 2026-04-30 21:27 | 33.80688 | -5.18119 | 34179 ft | 456 kts | 44° |
| 2026-04-30 21:28 | 33.86953 | -5.09410 | 34186 ft | 458 kts | 44° |
| 2026-04-30 21:29 | 33.93270 | -5.00843 | 34177 ft | 456 kts | 37° |
| 2026-04-30 21:30 | 34.05871 | -4.89380 | 34178 ft | 456 kts | 33° |
| 2026-04-30 21:31 | 34.18592 | -4.77763 | 34150 ft | 461 kts | 34° |
| 2026-04-30 21:32 | 34.26275 | -4.70707 | 34133 ft | 464 kts | 34° |
| 2026-04-30 21:32 | 34.31418 | -4.65975 | 34133 ft | 466 kts | 35° |
| 2026-04-30 21:33 | 34.39164 | -4.58837 | 34138 ft | 468 kts | 35° |
| 2026-04-30 21:34 | 34.44340 | -4.54031 | 34135 ft | 469 kts | 36° |
| 2026-04-30 21:34 | 34.52114 | -4.46770 | 34134 ft | 471 kts | 36° |
| 2026-04-30 21:35 | 34.57310 | -4.41909 | 34133 ft | 472 kts | 36° |
| 2026-04-30 21:35 | 34.62514 | -4.37034 | 34134 ft | 472 kts | 37° |
| 2026-04-30 21:36 | 34.67715 | -4.32155 | 34135 ft | 473 kts | 37° |
| 2026-04-30 21:37 | 34.78126 | -4.22366 | 34128 ft | 474 kts | 37° |
| 2026-04-30 21:37 | 34.83336 | -4.17455 | 34130 ft | 474 kts | 38° |
| 2026-04-30 21:38 | 34.88541 | -4.12539 | 34128 ft | 474 kts | 38° |
| 2026-04-30 21:38 | 34.93708 | -4.07652 | 34131 ft | 473 kts | 38° |
| 2026-04-30 21:39 | 34.98907 | -4.02726 | 34133 ft | 473 kts | 38° |
| 2026-04-30 21:39 | 35.04099 | -3.97799 | 34120 ft | 473 kts | 38° |
| 2026-04-30 21:40 | 35.09290 | -3.92865 | 34127 ft | 473 kts | 38° |
| 2026-04-30 21:40 | 35.14474 | -3.87928 | 34131 ft | 472 kts | 38° |
| 2026-04-30 21:41 | 35.19654 | -3.82993 | 34132 ft | 472 kts | 38° |
| 2026-04-30 21:41 | 35.24883 | -3.78135 | 34131 ft | 472 kts | 37° |
| 2026-04-30 21:42 | 35.30135 | -3.73300 | 34125 ft | 472 kts | 37° |
| 2026-04-30 21:42 | 35.35379 | -3.68451 | 34120 ft | 473 kts | 37° |
| 2026-04-30 21:43 | 35.40623 | -3.63581 | 34112 ft | 473 kts | 38° |
| 2026-04-30 21:43 | 35.45858 | -3.58705 | 34106 ft | 473 kts | 38° |
| 2026-04-30 21:44 | 35.51096 | -3.53819 | 34108 ft | 473 kts | 38° |
| 2026-04-30 21:44 | 35.56336 | -3.48925 | 34108 ft | 473 kts | 38° |
| 2026-04-30 21:45 | 35.61573 | -3.44024 | 34111 ft | 473 kts | 38° |
| 2026-04-30 21:45 | 35.66806 | -3.39119 | 34106 ft | 473 kts | 38° |
| 2026-04-30 21:46 | 35.72039 | -3.34206 | 34116 ft | 473 kts | 38° |
| 2026-04-30 21:46 | 35.77262 | -3.29292 | 34114 ft | 473 kts | 38° |
| 2026-04-30 21:47 | 35.82450 | -3.24405 | 34115 ft | 472 kts | 38° |
| 2026-04-30 21:47 | 35.87678 | -3.19426 | 34116 ft | 472 kts | 38° |
| 2026-04-30 21:48 | 35.92811 | -3.14479 | 34120 ft | 471 kts | 38° |
| 2026-04-30 21:48 | 35.97972 | -3.09500 | 34118 ft | 470 kts | 38° |
| 2026-04-30 21:49 | 36.03124 | -3.04528 | 34117 ft | 470 kts | 38° |
| 2026-04-30 21:49 | 36.08271 | -2.99554 | 34112 ft | 469 kts | 39° |
| 2026-04-30 21:50 | 36.10759 | -2.97147 | 34113 ft | 469 kts | 39° |